sensor_id;sensor_type;location;lat;lon;timestamp;pressure;altitude;pressure_sealevel;temperature;humidity
44751;BME280;30477;48.224;11.470;2023-01-26T00:01:50;96444.97;;;-0.46;81.27
44751;BME280;30477;48.224;11.470;2023-01-26T00:04:16;96447.72;;;-0.50;80.99
44751;BME280;30477;48.224;11.470;2023-01-26T00:06:41;96448.50;;;-0.70;80.75
44751;BME280;30477;48.224;11.470;2023-01-26T00:09:11;96454.84;;;-0.80;80.88
44751;BME280;30477;48.224;11.470;2023-01-26T00:11:37;96448.13;;;-0.82;80.64
44751;BME280;30477;48.224;11.470;2023-01-26T00:14:03;96448.13;;;-0.82;80.78
44751;BME280;30477;48.224;11.470;2023-01-26T00:16:28;96438.31;;;-0.91;81.30
44751;BME280;30477;48.224;11.470;2023-01-26T00:18:54;96445.13;;;-0.91;81.03
44751;BME280;30477;48.224;11.470;2023-01-26T00:21:21;96434.19;;;-0.93;81.14
44751;BME280;30477;48.224;11.470;2023-01-26T00:23:47;96434.91;;;-0.90;81.11
44751;BME280;30477;48.224;11.470;2023-01-26T00:26:18;96427.59;;;-0.77;81.34
44751;BME280;30477;48.224;11.470;2023-01-26T00:28:44;96429.97;;;-0.72;81.26
44751;BME280;30477;48.224;11.470;2023-01-26T00:31:18;96424.81;;;-0.71;81.18
44751;BME280;30477;48.224;11.470;2023-01-26T00:33:44;96416.84;;;-0.63;81.19
44751;BME280;30477;48.224;11.470;2023-01-26T00:36:10;96423.72;;;-0.65;80.88
44751;BME280;30477;48.224;11.470;2023-01-26T00:38:35;96425.53;;;-0.67;80.93
44751;BME280;30477;48.224;11.470;2023-01-26T00:41:00;96428.94;;;-0.68;80.92
44751;BME280;30477;48.224;11.470;2023-01-26T00:43:26;96427.31;;;-0.69;80.92
44751;BME280;30477;48.224;11.470;2023-01-26T00:45:51;96418.72;;;-0.67;81.16
44751;BME280;30477;48.224;11.470;2023-01-26T00:48:16;96422.03;;;-0.65;80.92
44751;BME280;30477;48.224;11.470;2023-01-26T00:50:42;96413.56;;;-0.65;81.18
44751;BME280;30477;48.224;11.470;2023-01-26T00:53:07;96410.84;;;-0.60;81.07
44751;BME280;30477;48.224;11.470;2023-01-26T00:55:33;96411.91;;;-0.66;80.90
44751;BME280;30477;48.224;11.470;2023-01-26T01:00:24;96420.00;;;-0.99;80.82
44751;BME280;30477;48.224;11.470;2023-01-26T01:02:50;96413.84;;;-0.93;81.09
44751;BME280;30477;48.224;11.470;2023-01-26T01:05:15;96411.59;;;-0.79;81.34
44751;BME280;30477;48.224;11.470;2023-01-26T01:07:41;96397.81;;;-0.73;81.16
44751;BME280;30477;48.224;11.470;2023-01-26T01:10:07;96401.94;;;-0.71;81.34
44751;BME280;30477;48.224;11.470;2023-01-26T01:12:33;96400.47;;;-0.76;80.92
44751;BME280;30477;48.224;11.470;2023-01-26T01:14:59;96400.34;;;-0.73;81.08
44751;BME280;30477;48.224;11.470;2023-01-26T01:17:24;96400.22;;;-0.70;81.25
44751;BME280;30477;48.224;11.470;2023-01-26T01:19:49;96406.69;;;-0.63;80.89
44751;BME280;30477;48.224;11.470;2023-01-26T01:22:15;96401.03;;;-0.70;81.11
44751;BME280;30477;48.224;11.470;2023-01-26T01:24:40;96405.19;;;-0.67;81.05
44751;BME280;30477;48.224;11.470;2023-01-26T01:27:06;96400.22;;;-0.70;81.04
44751;BME280;30477;48.224;11.470;2023-01-26T01:29:31;96409.13;;;-0.60;81.18
44751;BME280;30477;48.224;11.470;2023-01-26T01:31:57;96398.63;;;-0.73;80.88
44751;BME280;30477;48.224;11.470;2023-01-26T01:34:22;96400.34;;;-0.73;80.97
44751;BME280;30477;48.224;11.470;2023-01-26T01:36:48;96406.84;;;-0.66;81.07
44751;BME280;30477;48.224;11.470;2023-01-26T01:39:13;96407.22;;;-0.55;81.03
44751;BME280;30477;48.224;11.470;2023-01-26T01:41:38;96404.41;;;-0.49;80.84
44751;BME280;30477;48.224;11.470;2023-01-26T01:44:30;96402.63;;;-0.47;80.85
44751;BME280;30477;48.224;11.470;2023-01-26T01:47:05;96396.41;;;-0.60;80.61
44751;BME280;30477;48.224;11.470;2023-01-26T01:50:00;96399.50;;;-0.74;80.53
44751;BME280;30477;48.224;11.470;2023-01-26T01:52:29;96398.19;;;-0.83;80.60
44751;BME280;30477;48.224;11.470;2023-01-26T01:55:00;96412.34;;;-0.77;80.62
44751;BME280;30477;48.224;11.470;2023-01-26T01:57:33;96394.34;;;-0.93;80.38
44751;BME280;30477;48.224;11.470;2023-01-26T02:00:10;96402.88;;;-0.94;80.50
44751;BME280;30477;48.224;11.470;2023-01-26T02:02:37;96401.09;;;-0.92;80.53
44751;BME280;30477;48.224;11.470;2023-01-26T02:05:07;96398.13;;;-0.81;80.65
44751;BME280;30477;48.224;11.470;2023-01-26T02:07:35;96400.91;;;-0.87;80.22
44751;BME280;30477;48.224;11.470;2023-01-26T02:10:02;96384.56;;;-1.02;80.39
44751;BME280;30477;48.224;11.470;2023-01-26T02:12:43;96394.72;;;-1.02;80.37
44751;BME280;30477;48.224;11.470;2023-01-26T02:15:09;96391.19;;;-0.98;80.29
44751;BME280;30477;48.224;11.470;2023-01-26T02:17:34;96380.88;;;-0.95;80.50
44751;BME280;30477;48.224;11.470;2023-01-26T02:20:23;96375.06;;;-0.76;80.40
44751;BME280;30477;48.224;11.470;2023-01-26T02:28:18;96368.69;;;-0.66;79.68
44751;BME280;30477;48.224;11.470;2023-01-26T02:30:45;96362.25;;;-0.73;79.67
44751;BME280;30477;48.224;11.470;2023-01-26T02:33:21;96359.81;;;-0.76;78.93
44751;BME280;30477;48.224;11.470;2023-01-26T02:35:46;96362.16;;;-0.72;79.52
44751;BME280;30477;48.224;11.470;2023-01-26T02:38:12;96359.16;;;-0.61;79.90
44751;BME280;30477;48.224;11.470;2023-01-26T02:40:58;96346.53;;;-0.63;79.16
44751;BME280;30477;48.224;11.470;2023-01-26T02:43:26;96348.38;;;-0.66;79.21
44751;BME280;30477;48.224;11.470;2023-01-26T02:45:52;96345.97;;;-0.69;78.87
44751;BME280;30477;48.224;11.470;2023-01-26T02:48:18;96342.53;;;-0.68;79.11
44751;BME280;30477;48.224;11.470;2023-01-26T02:51:04;96331.28;;;-0.63;79.29
44751;BME280;30477;48.224;11.470;2023-01-26T02:53:29;96336.69;;;-0.70;79.09
44751;BME280;30477;48.224;11.470;2023-01-26T02:55:55;96332.75;;;-0.77;79.02
44751;BME280;30477;48.224;11.470;2023-01-26T02:58:20;96326.19;;;-0.63;79.30
44751;BME280;30477;48.224;11.470;2023-01-26T03:00:46;96324.47;;;-0.62;79.04
44751;BME280;30477;48.224;11.470;2023-01-26T03:03:14;96321.03;;;-0.61;78.97
44751;BME280;30477;48.224;11.470;2023-01-26T03:05:40;96321.53;;;-0.53;79.12
44751;BME280;30477;48.224;11.470;2023-01-26T03:08:06;96314.75;;;-0.52;79.01
44751;BME280;30477;48.224;11.470;2023-01-26T03:10:32;96315.06;;;-0.60;79.11
44751;BME280;30477;48.224;11.470;2023-01-26T03:12:57;96308.06;;;-0.55;78.88
44751;BME280;30477;48.224;11.470;2023-01-26T03:15:24;96311.25;;;-0.70;78.74
44751;BME280;30477;48.224;11.470;2023-01-26T03:18:13;96307.66;;;-0.65;78.73
44751;BME280;30477;48.224;11.470;2023-01-26T03:21:02;96303.91;;;-0.76;78.73
44751;BME280;30477;48.224;11.470;2023-01-26T03:23:47;96302.38;;;-0.80;78.49
44751;BME280;30477;48.224;11.470;2023-01-26T03:26:48;96306.31;;;-0.94;78.40
44751;BME280;30477;48.224;11.470;2023-01-26T03:29:32;96309.38;;;-0.86;78.14
44751;BME280;30477;48.224;11.470;2023-01-26T03:31:57;96303.72;;;-0.92;78.18
44751;BME280;30477;48.224;11.470;2023-01-26T03:34:23;96308.72;;;-0.91;78.29
44751;BME280;30477;48.224;11.470;2023-01-26T03:36:49;96310.97;;;-0.83;78.33
44751;BME280;30477;48.224;11.470;2023-01-26T03:39:14;96301.19;;;-0.92;78.32
44751;BME280;30477;48.224;11.470;2023-01-26T03:41:58;96303.13;;;-0.78;78.33
44751;BME280;30477;48.224;11.470;2023-01-26T03:44:42;96315.97;;;-0.82;78.12
44751;BME280;30477;48.224;11.470;2023-01-26T03:47:26;96315.97;;;-0.82;78.05
44751;BME280;30477;48.224;11.470;2023-01-26T03:50:10;96301.50;;;-0.79;78.10
44751;BME280;30477;48.224;11.470;2023-01-26T03:52:54;96303.06;;;-0.77;78.27
44751;BME280;30477;48.224;11.470;2023-01-26T03:55:38;96297.94;;;-0.75;78.18
44751;BME280;30477;48.224;11.470;2023-01-26T03:58:22;96300.59;;;-0.78;77.97
44751;BME280;30477;48.224;11.470;2023-01-26T04:00:48;96298.56;;;-0.70;78.30
44751;BME280;30477;48.224;11.470;2023-01-26T04:03:14;96298.56;;;-0.70;77.98
44751;BME280;30477;48.224;11.470;2023-01-26T04:05:58;96304.59;;;-0.73;78.10
44751;BME280;30477;48.224;11.470;2023-01-26T04:08:43;96297.75;;;-0.71;78.21
44751;BME280;30477;48.224;11.470;2023-01-26T04:11:12;96291.38;;;-0.60;77.75
44751;BME280;30477;48.224;11.470;2023-01-26T04:13:37;96294.72;;;-0.60;77.86
44751;BME280;30477;48.224;11.470;2023-01-26T04:16:21;96294.31;;;-0.51;77.91
44751;BME280;30477;48.224;11.470;2023-01-26T04:19:06;96287.44;;;-0.49;77.51
44751;BME280;30477;48.224;11.470;2023-01-26T04:21:50;96278.94;;;-0.48;77.68
44751;BME280;30477;48.224;11.470;2023-01-26T04:24:15;96279.06;;;-0.51;77.23
44751;BME280;30477;48.224;11.470;2023-01-26T04:26:41;96284.31;;;-0.54;77.24
44751;BME280;30477;48.224;11.470;2023-01-26T04:29:09;96279.59;;;-0.63;76.82
44751;BME280;30477;48.224;11.470;2023-01-26T04:31:35;96284.56;;;-0.60;77.26
44751;BME280;30477;48.224;11.470;2023-01-26T04:34:02;96282.78;;;-0.58;77.31
44751;BME280;30477;48.224;11.470;2023-01-26T04:36:28;96281.13;;;-0.59;77.01
44751;BME280;30477;48.224;11.470;2023-01-26T04:38:54;96281.38;;;-0.65;77.17
44751;BME280;30477;48.224;11.470;2023-01-26T04:41:19;96275.75;;;-0.72;77.11
44751;BME280;30477;48.224;11.470;2023-01-26T04:43:45;96277.41;;;-0.71;77.22
44751;BME280;30477;48.224;11.470;2023-01-26T04:46:10;96271.34;;;-0.68;77.67
44751;BME280;30477;48.224;11.470;2023-01-26T04:48:36;96270.94;;;-0.59;77.52
44751;BME280;30477;48.224;11.470;2023-01-26T04:51:04;96277.53;;;-0.55;77.35
44751;BME280;30477;48.224;11.470;2023-01-26T04:53:31;96269.44;;;-0.63;77.11
44751;BME280;30477;48.224;11.470;2023-01-26T04:55:57;96277.81;;;-0.61;77.44
44751;BME280;30477;48.224;11.470;2023-01-26T04:58:22;96277.53;;;-0.55;77.81
44751;BME280;30477;48.224;11.470;2023-01-26T05:00:56;96281.13;;;-0.59;77.37
44751;BME280;30477;48.224;11.470;2023-01-26T05:03:23;96278.66;;;-0.60;77.29
44751;BME280;30477;48.224;11.470;2023-01-26T05:05:50;96276.88;;;-0.58;77.55
44751;BME280;30477;48.224;11.470;2023-01-26T05:08:16;96279.59;;;-0.63;77.44
44751;BME280;30477;48.224;11.470;2023-01-26T05:10:42;96279.47;;;-0.60;77.46
44751;BME280;30477;48.224;11.470;2023-01-26T05:13:08;96277.63;;;-0.56;77.70
44751;BME280;30477;48.224;11.470;2023-01-26T05:15:34;96286.63;;;-0.49;77.55
44751;BME280;30477;48.224;11.470;2023-01-26T05:18:00;96281.34;;;-0.45;77.27
44751;BME280;30477;48.224;11.470;2023-01-26T05:20:25;96278.19;;;-0.50;77.13
44751;BME280;30477;48.224;11.470;2023-01-26T05:22:51;96283.53;;;-0.56;77.12
44751;BME280;30477;48.224;11.470;2023-01-26T05:25:16;96278.44;;;-0.56;77.14
44751;BME280;30477;48.224;11.470;2023-01-26T05:27:42;96281.13;;;-0.59;77.10
44751;BME280;30477;48.224;11.470;2023-01-26T05:30:07;96284.16;;;-0.51;77.15
44751;BME280;30477;48.224;11.470;2023-01-26T05:32:33;96273.44;;;-0.57;77.11
44751;BME280;30477;48.224;11.470;2023-01-26T05:34:58;96281.00;;;-0.56;77.20
44751;BME280;30477;48.224;11.470;2023-01-26T05:37:25;96276.88;;;-0.58;77.08
44751;BME280;30477;48.224;11.470;2023-01-26T05:39:50;96277.97;;;-0.64;77.10
44751;BME280;30477;48.224;11.470;2023-01-26T05:42:16;96285.25;;;-0.56;77.35
44751;BME280;30477;48.224;11.470;2023-01-26T05:44:41;96285.19;;;-0.55;77.32
44751;BME280;30477;48.224;11.470;2023-01-26T05:47:06;96283.03;;;-0.64;77.29
44751;BME280;30477;48.224;11.470;2023-01-26T05:49:32;96276.19;;;-0.62;77.43
44751;BME280;30477;48.224;11.470;2023-01-26T05:51:57;96274.19;;;-0.55;77.34
44751;BME280;30477;48.224;11.470;2023-01-26T05:54:23;96274.25;;;-0.57;77.52
44751;BME280;30477;48.224;11.470;2023-01-26T05:56:48;96282.78;;;-0.58;77.42
44751;BME280;30477;48.224;11.470;2023-01-26T05:59:14;96276.13;;;-0.60;77.74
44751;BME280;30477;48.224;11.470;2023-01-26T06:01:40;96280.28;;;-0.59;77.62
44751;BME280;30477;48.224;11.470;2023-01-26T06:04:05;96284.16;;;-0.51;77.44
44751;BME280;30477;48.224;11.470;2023-01-26T06:06:31;96284.31;;;-0.54;77.02
44751;BME280;30477;48.224;11.470;2023-01-26T06:08:57;96288.75;;;-0.59;77.41
44751;BME280;30477;48.224;11.470;2023-01-26T06:11:23;96286.84;;;-0.54;77.60
44751;BME280;30477;48.224;11.470;2023-01-26T06:13:48;96284.91;;;-0.49;77.78
44751;BME280;30477;48.224;11.470;2023-01-26T06:16:14;96282.38;;;-0.49;77.50
44751;BME280;30477;48.224;11.470;2023-01-26T06:18:39;96285.81;;;-0.50;77.41
44751;BME280;30477;48.224;11.470;2023-01-26T06:21:04;96287.34;;;-0.46;77.61
44751;BME280;30477;48.224;11.470;2023-01-26T06:23:30;96287.69;;;-0.34;77.67
44751;BME280;30477;48.224;11.470;2023-01-26T06:25:59;96282.91;;;-0.42;77.06
44751;BME280;30477;48.224;11.470;2023-01-26T06:28:25;96282.31;;;-0.47;77.15
44751;BME280;30477;48.224;11.470;2023-01-26T06:30:50;96279.06;;;-0.51;77.11
44751;BME280;30477;48.224;11.470;2023-01-26T06:33:17;96285.66;;;-0.47;77.51
44751;BME280;30477;48.224;11.470;2023-01-26T06:35:42;96275.16;;;-0.39;77.28
44751;BME280;30477;48.224;11.470;2023-01-26T06:38:08;96277.97;;;-0.45;77.00
44751;BME280;30477;48.224;11.470;2023-01-26T06:40:33;96284.66;;;-0.43;77.02
44751;BME280;30477;48.224;11.470;2023-01-26T06:42:58;96281.50;;;-0.48;77.08
44751;BME280;30477;48.224;11.470;2023-01-26T06:45:24;96271.94;;;-0.43;76.96
44751;BME280;30477;48.224;11.470;2023-01-26T06:47:50;96281.97;;;-0.39;77.01
44751;BME280;30477;48.224;11.470;2023-01-26T06:50:17;96280.25;;;-0.39;76.77
44751;BME280;30477;48.224;11.470;2023-01-26T06:52:46;96284.38;;;-0.36;77.04
44751;BME280;30477;48.224;11.470;2023-01-26T06:55:21;96275.13;;;-0.37;76.97
44751;BME280;30477;48.224;11.470;2023-01-26T06:57:47;96276.34;;;-0.27;76.91
44751;BME280;30477;48.224;11.470;2023-01-26T07:00:13;96283.06;;;-0.26;76.72
44751;BME280;30477;48.224;11.470;2023-01-26T07:02:39;96272.09;;;-0.27;76.76
44751;BME280;30477;48.224;11.470;2023-01-26T07:05:04;96283.88;;;-0.45;76.41
44751;BME280;30477;48.224;11.470;2023-01-26T07:07:30;96273.63;;;-0.62;76.74
44751;BME280;30477;48.224;11.470;2023-01-26T07:09:55;96277.38;;;-0.50;77.33
44751;BME280;30477;48.224;11.470;2023-01-26T07:12:20;96267.00;;;-0.46;77.29
44751;BME280;30477;48.224;11.470;2023-01-26T07:14:46;96267.88;;;-0.47;77.37
44751;BME280;30477;48.224;11.470;2023-01-26T07:17:12;96267.97;;;-0.48;77.32
44751;BME280;30477;48.224;11.470;2023-01-26T07:19:37;96263.69;;;-0.48;77.32
44751;BME280;30477;48.224;11.470;2023-01-26T07:22:03;96265.13;;;-0.42;77.54
44751;BME280;30477;48.224;11.470;2023-01-26T07:24:28;96267.38;;;-0.36;77.01
44751;BME280;30477;48.224;11.470;2023-01-26T07:26:54;96270.03;;;-0.37;77.46
44751;BME280;30477;48.224;11.470;2023-01-26T07:29:20;96269.31;;;-0.41;77.00
44751;BME280;30477;48.224;11.470;2023-01-26T07:31:46;96272.84;;;-0.44;77.11
44751;BME280;30477;48.224;11.470;2023-01-26T07:34:11;96271.66;;;-0.36;77.17
44751;BME280;30477;48.224;11.470;2023-01-26T07:36:37;96269.88;;;-0.34;77.09
44751;BME280;30477;48.224;11.470;2023-01-26T07:39:03;96262.78;;;-0.28;77.08
44751;BME280;30477;48.224;11.470;2023-01-26T07:41:28;96265.44;;;-0.29;77.03
44751;BME280;30477;48.224;11.470;2023-01-26T07:43:53;96259.69;;;-0.34;76.82
44751;BME280;30477;48.224;11.470;2023-01-26T07:46:19;96257.78;;;-0.29;76.92
44751;BME280;30477;48.224;11.470;2023-01-26T07:48:44;96258.81;;;-0.33;76.75
44751;BME280;30477;48.224;11.470;2023-01-26T07:51:10;96258.56;;;-0.27;77.12
44751;BME280;30477;48.224;11.470;2023-01-26T07:53:36;96257.78;;;-0.29;76.55
44751;BME280;30477;48.224;11.470;2023-01-26T07:56:07;96253.59;;;-0.30;76.46
44751;BME280;30477;48.224;11.470;2023-01-26T07:58:32;96256.00;;;-0.27;76.99
44751;BME280;30477;48.224;11.470;2023-01-26T08:01:07;96253.72;;;-0.14;76.52
44751;BME280;30477;48.224;11.470;2023-01-26T08:03:33;96262.66;;;-0.25;76.15
44751;BME280;30477;48.224;11.470;2023-01-26T08:05:59;96250.91;;;-0.27;75.89
44751;BME280;30477;48.224;11.470;2023-01-26T08:08:25;96253.53;;;-0.29;76.07
44751;BME280;30477;48.224;11.470;2023-01-26T08:10:50;96254.50;;;-0.31;76.02
44751;BME280;30477;48.224;11.470;2023-01-26T08:13:15;96252.13;;;-0.36;75.99
44751;BME280;30477;48.224;11.470;2023-01-26T08:15:41;96248.28;;;-0.26;75.92
44751;BME280;30477;48.224;11.470;2023-01-26T08:18:06;96248.72;;;-0.16;75.77
44751;BME280;30477;48.224;11.470;2023-01-26T08:20:32;96248.00;;;-0.19;75.45
44751;BME280;30477;48.224;11.470;2023-01-26T08:22:57;96246.22;;;-0.36;75.65
44751;BME280;30477;48.224;11.470;2023-01-26T08:25:22;96237.44;;;-0.29;75.98
44751;BME280;30477;48.224;11.470;2023-01-26T08:27:47;96241.03;;;-0.33;75.86
44751;BME280;30477;48.224;11.470;2023-01-26T08:30:13;96240.88;;;-0.30;76.09
44751;BME280;30477;48.224;11.470;2023-01-26T08:32:40;96233.13;;;-0.27;76.14
44751;BME280;30477;48.224;11.470;2023-01-26T08:35:05;96238.31;;;-0.30;76.30
44751;BME280;30477;48.224;11.470;2023-01-26T08:37:32;96240.13;;;-0.32;76.37
44751;BME280;30477;48.224;11.470;2023-01-26T08:39:57;96239.09;;;-0.28;76.48
44751;BME280;30477;48.224;11.470;2023-01-26T08:42:22;96235.66;;;-0.27;76.75
44751;BME280;30477;48.224;11.470;2023-01-26T08:44:49;96244.59;;;-0.18;76.83
44751;BME280;30477;48.224;11.470;2023-01-26T08:47:14;96242.66;;;-0.13;76.91
44751;BME280;30477;48.224;11.470;2023-01-26T08:49:39;96244.03;;;-0.06;76.76
44751;BME280;30477;48.224;11.470;2023-01-26T08:52:05;96242.25;;;-0.04;76.94
44751;BME280;30477;48.224;11.470;2023-01-26T08:54:30;96240.84;;;-0.11;76.33
44751;BME280;30477;48.224;11.470;2023-01-26T08:56:56;96232.75;;;-0.19;76.50
44751;BME280;30477;48.224;11.470;2023-01-26T08:59:22;96236.09;;;-0.19;76.35
44751;BME280;30477;48.224;11.470;2023-01-26T09:01:48;96241.00;;;-0.14;76.53
44751;BME280;30477;48.224;11.470;2023-01-26T09:04:13;96239.34;;;-0.15;76.58
44751;BME280;30477;48.224;11.470;2023-01-26T09:06:38;96235.44;;;-0.04;76.40
44751;BME280;30477;48.224;11.470;2023-01-26T09:09:04;96238.72;;;-0.02;76.19
44751;BME280;30477;48.224;11.470;2023-01-26T09:11:29;96241.56;;;-0.08;76.04
44751;BME280;30477;48.224;11.470;2023-01-26T09:13:55;96240.16;;;-0.15;75.90
44751;BME280;30477;48.224;11.470;2023-01-26T09:16:22;96236.59;;;-0.11;75.87
44751;BME280;30477;48.224;11.470;2023-01-26T09:18:51;96239.75;;;-0.06;75.96
44751;BME280;30477;48.224;11.470;2023-01-26T09:21:17;96237.81;;;-0.01;75.85
44751;BME280;30477;48.224;11.470;2023-01-26T09:23:42;96247.03;;;0.02;75.88
44751;BME280;30477;48.224;11.470;2023-01-26T09:26:08;96243.44;;;0.06;75.72
44751;BME280;30477;48.224;11.470;2023-01-26T09:28:33;96245.78;;;0.11;75.67
44751;BME280;30477;48.224;11.470;2023-01-26T09:31:07;96241.47;;;0.13;75.50
44751;BME280;30477;48.224;11.470;2023-01-26T09:33:34;96250.66;;;0.15;75.59
44751;BME280;30477;48.224;11.470;2023-01-26T09:36:08;96247.59;;;0.09;75.08
44751;BME280;30477;48.224;11.470;2023-01-26T09:38:33;96244.69;;;-0.03;75.29
44751;BME280;30477;48.224;11.470;2023-01-26T09:43:43;96252.81;;;0.06;75.47
44751;BME280;30477;48.224;11.470;2023-01-26T09:46:23;96244.41;;;0.04;75.41
44751;BME280;30477;48.224;11.470;2023-01-26T09:51:37;96252.81;;;0.23;74.97
44751;BME280;30477;48.224;11.470;2023-01-26T09:56:50;96242.66;;;0.23;74.40
44751;BME280;30477;48.224;11.470;2023-01-26T09:59:37;96242.59;;;0.25;73.92
44751;BME280;30477;48.224;11.470;2023-01-26T10:02:18;96233.09;;;0.28;73.94
44751;BME280;30477;48.224;11.470;2023-01-26T10:04:49;96238.63;;;0.19;73.53
44751;BME280;30477;48.224;11.470;2023-01-26T10:07:17;96241.13;;;0.02;73.49
44751;BME280;30477;48.224;11.470;2023-01-26T10:09:46;96235.06;;;-0.15;73.76
44751;BME280;30477;48.224;11.470;2023-01-26T10:14:58;96233.16;;;-0.10;74.30
44751;BME280;30477;48.224;11.470;2023-01-26T10:17:38;96233.91;;;-0.08;74.43
44751;BME280;30477;48.224;11.470;2023-01-26T10:20:05;96236.75;;;-0.14;74.46
44751;BME280;30477;48.224;11.470;2023-01-26T10:22:49;96233.63;;;-0.02;74.87
44751;BME280;30477;48.224;11.470;2023-01-26T10:27:53;96226.66;;;0.02;74.94
44751;BME280;30477;48.224;11.470;2023-01-26T10:30:20;96226.47;;;0.07;74.95
44751;BME280;30477;48.224;11.470;2023-01-26T10:32:46;96227.06;;;0.12;74.88
44751;BME280;30477;48.224;11.470;2023-01-26T10:35:16;96224.81;;;0.06;74.78
44751;BME280;30477;48.224;11.470;2023-01-26T10:37:42;96219.19;;;-0.01;74.60
44751;BME280;30477;48.224;11.470;2023-01-26T10:40:08;96222.84;;;-0.07;74.74
44751;BME280;30477;48.224;11.470;2023-01-26T10:42:34;96216.94;;;0.10;74.81
44751;BME280;30477;48.224;11.470;2023-01-26T10:45:24;96218.56;;;0.13;74.75
44751;BME280;30477;48.224;11.470;2023-01-26T10:50:26;96220.63;;;0.05;74.39
44751;BME280;30477;48.224;11.470;2023-01-26T10:53:02;96221.19;;;-0.08;74.61
44751;BME280;30477;48.224;11.470;2023-01-26T10:55:29;96214.31;;;-0.06;74.34
44751;BME280;30477;48.224;11.470;2023-01-26T10:57:54;96214.63;;;0.06;74.49
44751;BME280;30477;48.224;11.470;2023-01-26T11:02:51;96212.25;;;0.03;73.92
44751;BME280;30477;48.224;11.470;2023-01-26T11:05:20;96213.88;;;0.04;74.05
44751;BME280;30477;48.224;11.470;2023-01-26T11:07:49;96202.19;;;-0.01;74.04
44751;BME280;30477;48.224;11.470;2023-01-26T11:10:33;96203.97;;;-0.03;73.71
44751;BME280;30477;48.224;11.470;2023-01-26T11:13:19;96204.13;;;-0.06;73.85
44751;BME280;30477;48.224;11.470;2023-01-26T11:15:49;96198.91;;;-0.03;73.84
44751;BME280;30477;48.224;11.470;2023-01-26T11:18:27;96198.91;;;-0.03;73.73
44751;BME280;30477;48.224;11.470;2023-01-26T11:20:59;96188.88;;;-0.06;73.64
44751;BME280;30477;48.224;11.470;2023-01-26T11:45:37;96198.09;;;-0.22;73.85
44751;BME280;30477;48.224;11.470;2023-01-26T11:48:20;96201.16;;;-0.33;73.80
44751;BME280;30477;48.224;11.470;2023-01-26T11:54:11;96195.16;;;-0.32;74.50
44751;BME280;30477;48.224;11.470;2023-01-26T11:56:49;96197.63;;;-0.30;74.48
44751;BME280;30477;48.224;11.470;2023-01-26T11:59:29;96189.03;;;-0.28;74.61
44751;BME280;30477;48.224;11.470;2023-01-26T12:04:42;96185.56;;;-0.25;74.67
44751;BME280;30477;48.224;11.470;2023-01-26T12:07:18;96190.91;;;-0.31;74.76
44751;BME280;30477;48.224;11.470;2023-01-26T12:09:46;96189.94;;;-0.29;74.86
44751;BME280;30477;48.224;11.470;2023-01-26T12:12:29;96178.97;;;-0.12;75.06
44751;BME280;30477;48.224;11.470;2023-01-26T12:14:58;96177.31;;;-0.13;74.84
44751;BME280;30477;48.224;11.470;2023-01-26T12:17:57;96178.34;;;-0.17;74.75
44751;BME280;30477;48.224;11.470;2023-01-26T12:23:26;96163.56;;;-0.09;74.62
44751;BME280;30477;48.224;11.470;2023-01-26T12:26:08;96162.97;;;-0.14;74.62
44751;BME280;30477;48.224;11.470;2023-01-26T12:31:33;96165.00;;;-0.03;74.13
44751;BME280;30477;48.224;11.470;2023-01-26T12:34:00;96158.06;;;0.01;74.26
44751;BME280;30477;48.224;11.470;2023-01-26T12:36:41;96162.31;;;0.00;73.80
44751;BME280;30477;48.224;11.470;2023-01-26T12:46:46;96153.50;;;0.07;73.63
44751;BME280;30477;48.224;11.470;2023-01-26T12:49:25;96158.81;;;0.03;73.59
44751;BME280;30477;48.224;11.470;2023-01-26T12:51:57;96147.28;;;0.13;73.76
44751;BME280;30477;48.224;11.470;2023-01-26T12:56:57;96156.41;;;-0.01;73.55
44751;BME280;30477;48.224;11.470;2023-01-26T12:59:36;96156.41;;;-0.01;73.57
44751;BME280;30477;48.224;11.470;2023-01-26T13:02:18;96164.22;;;-0.23;73.20
44751;BME280;30477;48.224;11.470;2023-01-26T13:04:45;96154.41;;;-0.30;73.30
44751;BME280;30477;48.224;11.470;2023-01-26T13:07:29;96152.31;;;-0.39;73.68
44751;BME280;30477;48.224;11.470;2023-01-26T13:10:09;96151.09;;;-0.32;73.54
44751;BME280;30477;48.224;11.470;2023-01-26T13:15:29;96146.03;;;-0.32;73.65
44751;BME280;30477;48.224;11.470;2023-01-26T13:18:00;96151.03;;;-0.31;73.40
44751;BME280;30477;48.224;11.470;2023-01-26T13:26:24;96138.16;;;-0.28;73.35
44751;BME280;30477;48.224;11.470;2023-01-26T13:31:50;96142.69;;;-0.15;73.45
44751;BME280;30477;48.224;11.470;2023-01-26T13:34:18;96145.16;;;-0.14;73.34
44751;BME280;30477;48.224;11.470;2023-01-26T13:36:45;96149.44;;;-0.14;73.41
44751;BME280;30477;48.224;11.470;2023-01-26T13:39:20;96151.88;;;-0.13;73.53
44751;BME280;30477;48.224;11.470;2023-01-26T13:41:48;96140.19;;;-0.17;73.32
44751;BME280;30477;48.224;11.470;2023-01-26T13:44:21;96145.00;;;-0.11;73.78
44751;BME280;30477;48.224;11.470;2023-01-26T13:46:59;96145.28;;;-0.17;73.46
44751;BME280;30477;48.224;11.470;2023-01-26T13:49:39;96141.97;;;0.00;73.56
44751;BME280;30477;48.224;11.470;2023-01-26T13:52:21;96147.06;;;0.00;73.16
44751;BME280;30477;48.224;11.470;2023-01-26T13:54:49;96141.56;;;-0.10;73.17
44751;BME280;30477;48.224;11.470;2023-01-26T13:57:23;96139.78;;;-0.08;73.48
44751;BME280;30477;48.224;11.470;2023-01-26T13:59:51;96143.66;;;-0.01;73.03
44751;BME280;30477;48.224;11.470;2023-01-26T14:02:31;96147.78;;;0.02;72.80
44751;BME280;30477;48.224;11.470;2023-01-26T14:04:59;96146.97;;;0.02;72.70
44751;BME280;30477;48.224;11.470;2023-01-26T14:07:31;96142.91;;;-0.03;72.65
44751;BME280;30477;48.224;11.470;2023-01-26T14:10:00;96140.31;;;-0.01;72.87
44751;BME280;30477;48.224;11.470;2023-01-26T14:13:02;96142.84;;;-0.01;72.74
44751;BME280;30477;48.224;11.470;2023-01-26T14:15:29;96147.66;;;-0.12;72.86
44751;BME280;30477;48.224;11.470;2023-01-26T14:17:59;96140.06;;;-0.14;72.72
44751;BME280;30477;48.224;11.470;2023-01-26T14:20:36;96142.44;;;-0.28;72.79
44751;BME280;30477;48.224;11.470;2023-01-26T14:23:13;96143.94;;;-0.24;72.77
44751;BME280;30477;48.224;11.470;2023-01-26T14:25:46;96153.97;;;-0.21;72.99